sensor_id;sensor_type;location;lat;lon;timestamp;temperature;humidity
77100;SHT31;66602;48.922;2.414;2023-04-24T00:02:23;8.61;80.23
77100;SHT31;66602;48.922;2.414;2023-04-24T00:04:49;8.60;80.81
77100;SHT31;66602;48.922;2.414;2023-04-24T00:07:15;8.47;81.33
77100;SHT31;66602;48.922;2.414;2023-04-24T00:09:42;8.46;81.15
77100;SHT31;66602;48.922;2.414;2023-04-24T00:12:08;8.42;81.17
77100;SHT31;66602;48.922;2.414;2023-04-24T00:14:34;8.23;81.93
77100;SHT31;66602;48.922;2.414;2023-04-24T00:17:00;8.33;81.98
77100;SHT31;66602;48.922;2.414;2023-04-24T00:19:27;8.37;82.04
77100;SHT31;66602;48.922;2.414;2023-04-24T00:21:53;8.50;81.15
77100;SHT31;66602;48.922;2.414;2023-04-24T00:24:19;8.43;81.88
77100;SHT31;66602;48.922;2.414;2023-04-24T00:26:45;8.40;82.04
77100;SHT31;66602;48.922;2.414;2023-04-24T00:29:10;8.46;81.46
77100;SHT31;66602;48.922;2.414;2023-04-24T00:31:36;8.40;81.47
77100;SHT31;66602;48.922;2.414;2023-04-24T00:34:03;8.32;81.94
77100;SHT31;66602;48.922;2.414;2023-04-24T00:36:28;8.33;81.68
77100;SHT31;66602;48.922;2.414;2023-04-24T00:38:54;8.30;81.88
77100;SHT31;66602;48.922;2.414;2023-04-24T00:41:21;8.17;82.68
77100;SHT31;66602;48.922;2.414;2023-04-24T00:43:47;8.16;82.69
77100;SHT31;66602;48.922;2.414;2023-04-24T00:46:13;8.29;82.38
77100;SHT31;66602;48.922;2.414;2023-04-24T00:48:39;8.28;82.45
77100;SHT31;66602;48.922;2.414;2023-04-24T00:51:05;8.29;82.38
77100;SHT31;66602;48.922;2.414;2023-04-24T00:53:31;8.37;82.22
77100;SHT31;66602;48.922;2.414;2023-04-24T00:55:57;8.33;82.53
77100;SHT31;66602;48.922;2.414;2023-04-24T00:58:23;8.28;82.55
77100;SHT31;66602;48.922;2.414;2023-04-24T01:00:49;8.37;82.27
77100;SHT31;66602;48.922;2.414;2023-04-24T01:03:22;8.43;81.97
77100;SHT31;66602;48.922;2.414;2023-04-24T01:05:49;8.59;81.06
77100;SHT31;66602;48.922;2.414;2023-04-24T01:08:14;8.56;81.57
77100;SHT31;66602;48.922;2.414;2023-04-24T01:10:41;8.56;81.49
77100;SHT31;66602;48.922;2.414;2023-04-24T01:13:08;8.56;81.50
77100;SHT31;66602;48.922;2.414;2023-04-24T01:15:34;8.57;81.09
77100;SHT31;66602;48.922;2.414;2023-04-24T01:18:00;8.50;81.61
77100;SHT31;66602;48.922;2.414;2023-04-24T01:20:25;8.39;81.84
77100;SHT31;66602;48.922;2.414;2023-04-24T01:22:51;8.32;82.25
77100;SHT31;66602;48.922;2.414;2023-04-24T01:25:18;8.10;83.31
77100;SHT31;66602;48.922;2.414;2023-04-24T01:27:43;7.92;84.17
77100;SHT31;66602;48.922;2.414;2023-04-24T01:30:10;7.88;84.49
77100;SHT31;66602;48.922;2.414;2023-04-24T01:32:36;7.92;84.12
77100;SHT31;66602;48.922;2.414;2023-04-24T01:35:07;7.99;83.87
77100;SHT31;66602;48.922;2.414;2023-04-24T01:37:33;7.99;83.78
77100;SHT31;66602;48.922;2.414;2023-04-24T01:39:59;7.92;84.12
77100;SHT31;66602;48.922;2.414;2023-04-24T01:42:24;7.71;84.95
77100;SHT31;66602;48.922;2.414;2023-04-24T01:44:50;7.53;86.00
77100;SHT31;66602;48.922;2.414;2023-04-24T01:47:16;7.77;85.25
77100;SHT31;66602;48.922;2.414;2023-04-24T01:49:42;7.73;85.08
77100;SHT31;66602;48.922;2.414;2023-04-24T01:52:07;7.55;85.66
77100;SHT31;66602;48.922;2.414;2023-04-24T01:54:33;7.38;86.56
77100;SHT31;66602;48.922;2.414;2023-04-24T01:56:59;7.51;86.13
77100;SHT31;66602;48.922;2.414;2023-04-24T01:59:26;7.61;85.95
77100;SHT31;66602;48.922;2.414;2023-04-24T02:01:53;7.58;86.01
77100;SHT31;66602;48.922;2.414;2023-04-24T02:04:18;7.75;84.70
77100;SHT31;66602;48.922;2.414;2023-04-24T02:06:44;7.58;85.71
77100;SHT31;66602;48.922;2.414;2023-04-24T02:09:09;7.68;85.29
77100;SHT31;66602;48.922;2.414;2023-04-24T02:11:36;7.53;85.73
77100;SHT31;66602;48.922;2.414;2023-04-24T02:14:01;7.88;84.48
77100;SHT31;66602;48.922;2.414;2023-04-24T02:16:28;7.78;84.71
77100;SHT31;66602;48.922;2.414;2023-04-24T02:18:57;7.75;85.03
77100;SHT31;66602;48.922;2.414;2023-04-24T02:21:22;7.51;85.82
77100;SHT31;66602;48.922;2.414;2023-04-24T02:23:48;7.55;85.79
77100;SHT31;66602;48.922;2.414;2023-04-24T02:26:13;7.70;85.50
77100;SHT31;66602;48.922;2.414;2023-04-24T02:28:39;7.88;84.85
77100;SHT31;66602;48.922;2.414;2023-04-24T02:31:04;8.09;83.89
77100;SHT31;66602;48.922;2.414;2023-04-24T02:33:31;8.22;83.44
77100;SHT31;66602;48.922;2.414;2023-04-24T02:35:57;8.25;83.41
77100;SHT31;66602;48.922;2.414;2023-04-24T02:38:22;8.40;82.28
77100;SHT31;66602;48.922;2.414;2023-04-24T02:40:48;8.40;82.57
77100;SHT31;66602;48.922;2.414;2023-04-24T02:43:13;8.50;81.86
77100;SHT31;66602;48.922;2.414;2023-04-24T02:45:39;8.50;82.40
77100;SHT31;66602;48.922;2.414;2023-04-24T02:48:04;8.53;82.00
77100;SHT31;66602;48.922;2.414;2023-04-24T02:50:30;8.52;82.03
77100;SHT31;66602;48.922;2.414;2023-04-24T02:52:55;8.42;82.18
77100;SHT31;66602;48.922;2.414;2023-04-24T02:55:20;8.46;82.08
77100;SHT31;66602;48.922;2.414;2023-04-24T02:57:46;8.33;82.54
77100;SHT31;66602;48.922;2.414;2023-04-24T03:00:12;8.22;83.17
77100;SHT31;66602;48.922;2.414;2023-04-24T03:02:38;8.23;83.10
77100;SHT31;66602;48.922;2.414;2023-04-24T03:05:04;8.29;82.88
77100;SHT31;66602;48.922;2.414;2023-04-24T03:07:30;8.29;83.04
77100;SHT31;66602;48.922;2.414;2023-04-24T03:09:56;8.29;82.97
77100;SHT31;66602;48.922;2.414;2023-04-24T03:12:23;8.30;83.27
77100;SHT31;66602;48.922;2.414;2023-04-24T03:14:49;8.42;82.65
77100;SHT31;66602;48.922;2.414;2023-04-24T03:17:14;8.37;83.04
77100;SHT31;66602;48.922;2.414;2023-04-24T03:19:40;8.29;83.42
77100;SHT31;66602;48.922;2.414;2023-04-24T03:22:06;8.37;82.76
77100;SHT31;66602;48.922;2.414;2023-04-24T03:24:31;8.26;83.36
77100;SHT31;66602;48.922;2.414;2023-04-24T03:26:57;8.36;83.11
77100;SHT31;66602;48.922;2.414;2023-04-24T03:29:23;8.44;82.76
77100;SHT31;66602;48.922;2.414;2023-04-24T03:31:57;8.37;83.21
77100;SHT31;66602;48.922;2.414;2023-04-24T03:34:23;8.46;82.99
77100;SHT31;66602;48.922;2.414;2023-04-24T03:36:48;8.47;82.76
77100;SHT31;66602;48.922;2.414;2023-04-24T03:39:14;8.53;82.78
77100;SHT31;66602;48.922;2.414;2023-04-24T03:41:40;8.56;82.17
77100;SHT31;66602;48.922;2.414;2023-04-24T03:44:06;8.56;82.43
77100;SHT31;66602;48.922;2.414;2023-04-24T03:46:33;8.54;82.51
77100;SHT31;66602;48.922;2.414;2023-04-24T03:49:00;8.57;82.49
77100;SHT31;66602;48.922;2.414;2023-04-24T03:51:26;8.57;82.46
77100;SHT31;66602;48.922;2.414;2023-04-24T03:53:53;8.54;82.21
77100;SHT31;66602;48.922;2.414;2023-04-24T03:56:21;8.57;82.09
77100;SHT31;66602;48.922;2.414;2023-04-24T03:58:47;8.49;82.80
77100;SHT31;66602;48.922;2.414;2023-04-24T04:01:12;8.53;82.49
77100;SHT31;66602;48.922;2.414;2023-04-24T04:03:38;8.52;82.56
77100;SHT31;66602;48.922;2.414;2023-04-24T04:06:04;8.50;82.43
77100;SHT31;66602;48.922;2.414;2023-04-24T04:08:29;8.42;83.24
77100;SHT31;66602;48.922;2.414;2023-04-24T04:10:55;8.33;83.29
77100;SHT31;66602;48.922;2.414;2023-04-24T04:13:21;8.30;83.64
77100;SHT31;66602;48.922;2.414;2023-04-24T04:15:46;8.36;83.04
77100;SHT31;66602;48.922;2.414;2023-04-24T04:18:12;8.32;83.10
77100;SHT31;66602;48.922;2.414;2023-04-24T04:20:37;8.23;83.68
77100;SHT31;66602;48.922;2.414;2023-04-24T04:23:04;8.28;83.58
77100;SHT31;66602;48.922;2.414;2023-04-24T04:25:29;8.36;83.10
77100;SHT31;66602;48.922;2.414;2023-04-24T04:27:55;8.42;82.94
77100;SHT31;66602;48.922;2.414;2023-04-24T04:30:23;8.47;82.81
77100;SHT31;66602;48.922;2.414;2023-04-24T04:32:49;8.42;83.19
77100;SHT31;66602;48.922;2.414;2023-04-24T04:35:14;8.42;83.11
77100;SHT31;66602;48.922;2.414;2023-04-24T04:37:40;8.40;83.10
77100;SHT31;66602;48.922;2.414;2023-04-24T04:40:06;8.42;83.00
77100;SHT31;66602;48.922;2.414;2023-04-24T04:42:32;8.40;83.39
77100;SHT31;66602;48.922;2.414;2023-04-24T04:44:59;8.43;83.16
77100;SHT31;66602;48.922;2.414;2023-04-24T04:47:26;8.47;82.75
77100;SHT31;66602;48.922;2.414;2023-04-24T04:49:52;8.44;83.12
77100;SHT31;66602;48.922;2.414;2023-04-24T04:52:18;8.46;83.16
77100;SHT31;66602;48.922;2.414;2023-04-24T04:54:44;8.47;83.39
77100;SHT31;66602;48.922;2.414;2023-04-24T04:57:11;8.46;83.82
77100;SHT31;66602;48.922;2.414;2023-04-24T04:59:37;8.39;84.46
77100;SHT31;66602;48.922;2.414;2023-04-24T05:02:02;8.32;84.64
77100;SHT31;66602;48.922;2.414;2023-04-24T05:04:28;8.37;84.08
77100;SHT31;66602;48.922;2.414;2023-04-24T05:06:53;8.42;83.95
77100;SHT31;66602;48.922;2.414;2023-04-24T05:09:27;8.46;83.84
77100;SHT31;66602;48.922;2.414;2023-04-24T05:11:55;8.50;83.32
77100;SHT31;66602;48.922;2.414;2023-04-24T05:14:22;8.50;83.47
77100;SHT31;66602;48.922;2.414;2023-04-24T05:16:49;8.52;83.71
77100;SHT31;66602;48.922;2.414;2023-04-24T05:19:41;8.53;83.53
77100;SHT31;66602;48.922;2.414;2023-04-24T05:22:06;8.59;83.41
77100;SHT31;66602;48.922;2.414;2023-04-24T05:24:36;8.63;83.47
77100;SHT31;66602;48.922;2.414;2023-04-24T05:27:05;8.59;83.61
77100;SHT31;66602;48.922;2.414;2023-04-24T05:29:33;8.57;83.15
77100;SHT31;66602;48.922;2.414;2023-04-24T05:32:00;8.64;83.12
77100;SHT31;66602;48.922;2.414;2023-04-24T05:34:26;8.68;83.23
77100;SHT31;66602;48.922;2.414;2023-04-24T05:36:52;8.74;82.82
77100;SHT31;66602;48.922;2.414;2023-04-24T05:39:18;8.75;82.53
77100;SHT31;66602;48.922;2.414;2023-04-24T05:42:06;8.88;82.51
77100;SHT31;66602;48.922;2.414;2023-04-24T05:44:31;8.88;82.46
77100;SHT31;66602;48.922;2.414;2023-04-24T05:46:57;8.94;82.39
77100;SHT31;66602;48.922;2.414;2023-04-24T05:49:23;8.98;82.48
77100;SHT31;66602;48.922;2.414;2023-04-24T05:51:50;9.00;81.96
77100;SHT31;66602;48.922;2.414;2023-04-24T05:54:16;9.04;82.12
77100;SHT31;66602;48.922;2.414;2023-04-24T05:56:45;9.08;82.25
77100;SHT31;66602;48.922;2.414;2023-04-24T05:59:14;9.12;81.87
77100;SHT31;66602;48.922;2.414;2023-04-24T06:01:40;9.16;82.33
77100;SHT31;66602;48.922;2.414;2023-04-24T06:04:05;9.22;82.00
77100;SHT31;66602;48.922;2.414;2023-04-24T06:06:37;9.25;81.89
77100;SHT31;66602;48.922;2.414;2023-04-24T06:09:16;9.31;81.47
77100;SHT31;66602;48.922;2.414;2023-04-24T06:11:43;9.39;81.69
77100;SHT31;66602;48.922;2.414;2023-04-24T06:14:08;9.34;81.46
77100;SHT31;66602;48.922;2.414;2023-04-24T06:16:37;9.26;81.29
77100;SHT31;66602;48.922;2.414;2023-04-24T06:19:05;9.36;81.90
77100;SHT31;66602;48.922;2.414;2023-04-24T06:21:30;9.32;81.36
77100;SHT31;66602;48.922;2.414;2023-04-24T06:23:56;9.43;81.06
77100;SHT31;66602;48.922;2.414;2023-04-24T06:26:44;9.55;81.36
77100;SHT31;66602;48.922;2.414;2023-04-24T06:29:16;9.50;80.96
77100;SHT31;66602;48.922;2.414;2023-04-24T06:31:51;9.57;80.38
77100;SHT31;66602;48.922;2.414;2023-04-24T06:34:17;9.67;80.34
77100;SHT31;66602;48.922;2.414;2023-04-24T06:36:43;9.65;80.48
77100;SHT31;66602;48.922;2.414;2023-04-24T06:39:08;9.72;80.24
77100;SHT31;66602;48.922;2.414;2023-04-24T06:41:34;9.80;80.49
77100;SHT31;66602;48.922;2.414;2023-04-24T06:44:00;9.65;80.28
77100;SHT31;66602;48.922;2.414;2023-04-24T06:46:25;9.56;80.75
77100;SHT31;66602;48.922;2.414;2023-04-24T06:48:53;9.53;81.08
77100;SHT31;66602;48.922;2.414;2023-04-24T06:51:25;9.47;81.34
77100;SHT31;66602;48.922;2.414;2023-04-24T06:53:54;9.50;81.53
77100;SHT31;66602;48.922;2.414;2023-04-24T06:56:21;9.70;80.71
77100;SHT31;66602;48.922;2.414;2023-04-24T06:58:47;9.74;80.55
77100;SHT31;66602;48.922;2.414;2023-04-24T07:01:13;9.89;79.71
77100;SHT31;66602;48.922;2.414;2023-04-24T07:03:38;10.00;79.79
77100;SHT31;66602;48.922;2.414;2023-04-24T07:06:05;9.94;79.80
77100;SHT31;66602;48.922;2.414;2023-04-24T07:08:30;9.89;79.94
77100;SHT31;66602;48.922;2.414;2023-04-24T07:10:57;10.20;79.12
77100;SHT31;66602;48.922;2.414;2023-04-24T07:13:23;10.62;77.92
77100;SHT31;66602;48.922;2.414;2023-04-24T07:15:49;10.91;76.97
77100;SHT31;66602;48.922;2.414;2023-04-24T07:18:20;10.99;76.21
77100;SHT31;66602;48.922;2.414;2023-04-24T07:20:46;11.82;73.41
77100;SHT31;66602;48.922;2.414;2023-04-24T07:23:11;11.71;73.12
77100;SHT31;66602;48.922;2.414;2023-04-24T07:25:37;12.02;73.05
77100;SHT31;66602;48.922;2.414;2023-04-24T07:28:03;12.19;71.45
77100;SHT31;66602;48.922;2.414;2023-04-24T07:30:30;12.21;71.99
77100;SHT31;66602;48.922;2.414;2023-04-24T07:32:58;11.93;71.78
77100;SHT31;66602;48.922;2.414;2023-04-24T07:35:24;11.53;73.25
77100;SHT31;66602;48.922;2.414;2023-04-24T07:37:51;12.01;72.55
77100;SHT31;66602;48.922;2.414;2023-04-24T07:40:18;12.19;71.21
77100;SHT31;66602;48.922;2.414;2023-04-24T07:42:43;11.81;72.18
77100;SHT31;66602;48.922;2.414;2023-04-24T07:45:09;11.98;72.09
77100;SHT31;66602;48.922;2.414;2023-04-24T07:47:35;11.41;73.50
77100;SHT31;66602;48.922;2.414;2023-04-24T07:50:02;11.19;74.07
77100;SHT31;66602;48.922;2.414;2023-04-24T07:52:28;11.10;75.18
77100;SHT31;66602;48.922;2.414;2023-04-24T07:54:54;11.12;74.74
77100;SHT31;66602;48.922;2.414;2023-04-24T07:57:24;10.93;74.99
77100;SHT31;66602;48.922;2.414;2023-04-24T07:59:50;11.17;75.14
77100;SHT31;66602;48.922;2.414;2023-04-24T08:02:16;11.17;74.45
77100;SHT31;66602;48.922;2.414;2023-04-24T08:04:41;11.26;75.16
77100;SHT31;66602;48.922;2.414;2023-04-24T08:07:07;11.35;74.29
77100;SHT31;66602;48.922;2.414;2023-04-24T08:09:32;11.37;75.48
77100;SHT31;66602;48.922;2.414;2023-04-24T08:11:58;10.93;75.32
77100;SHT31;66602;48.922;2.414;2023-04-24T08:14:24;10.99;75.77
77100;SHT31;66602;48.922;2.414;2023-04-24T08:16:50;10.97;75.55
77100;SHT31;66602;48.922;2.414;2023-04-24T08:19:16;11.07;75.59
77100;SHT31;66602;48.922;2.414;2023-04-24T08:21:42;11.19;74.17
77100;SHT31;66602;48.922;2.414;2023-04-24T08:24:07;12.01;71.94
77100;SHT31;66602;48.922;2.414;2023-04-24T08:26:33;12.52;71.24
77100;SHT31;66602;48.922;2.414;2023-04-24T08:28:59;12.77;69.96
77100;SHT31;66602;48.922;2.414;2023-04-24T08:31:25;12.33;69.61
77100;SHT31;66602;48.922;2.414;2023-04-24T08:33:52;13.43;66.85
77100;SHT31;66602;48.922;2.414;2023-04-24T08:36:17;14.37;62.49
77100;SHT31;66602;48.922;2.414;2023-04-24T08:38:43;14.64;62.13
77100;SHT31;66602;48.922;2.414;2023-04-24T08:41:14;14.75;61.33
77100;SHT31;66602;48.922;2.414;2023-04-24T08:43:42;14.83;61.37
77100;SHT31;66602;48.922;2.414;2023-04-24T08:46:08;14.83;61.48
77100;SHT31;66602;48.922;2.414;2023-04-24T08:48:35;13.15;66.12
77100;SHT31;66602;48.922;2.414;2023-04-24T08:51:02;12.95;67.47
77100;SHT31;66602;48.922;2.414;2023-04-24T08:53:28;12.54;68.11
77100;SHT31;66602;48.922;2.414;2023-04-24T08:55:55;12.02;69.90
77100;SHT31;66602;48.922;2.414;2023-04-24T08:58:22;11.74;71.67
77100;SHT31;66602;48.922;2.414;2023-04-24T09:00:50;11.93;70.52
77100;SHT31;66602;48.922;2.414;2023-04-24T09:03:16;11.86;71.14
77100;SHT31;66602;48.922;2.414;2023-04-24T09:05:43;12.11;71.87
77100;SHT31;66602;48.922;2.414;2023-04-24T09:08:11;12.71;70.01
77100;SHT31;66602;48.922;2.414;2023-04-24T09:10:39;13.16;67.87
77100;SHT31;66602;48.922;2.414;2023-04-24T09:13:05;13.60;67.23
77100;SHT31;66602;48.922;2.414;2023-04-24T09:15:31;13.86;64.99
77100;SHT31;66602;48.922;2.414;2023-04-24T09:17:57;14.06;64.18
77100;SHT31;66602;48.922;2.414;2023-04-24T09:20:23;14.35;63.60
77100;SHT31;66602;48.922;2.414;2023-04-24T09:22:53;13.99;64.63
77100;SHT31;66602;48.922;2.414;2023-04-24T09:25:20;14.11;63.35
77100;SHT31;66602;48.922;2.414;2023-04-24T09:27:47;14.18;63.92
77100;SHT31;66602;48.922;2.414;2023-04-24T09:30:13;14.17;64.88
77100;SHT31;66602;48.922;2.414;2023-04-24T09:32:39;13.87;64.73
77100;SHT31;66602;48.922;2.414;2023-04-24T09:35:07;13.19;64.61
77100;SHT31;66602;48.922;2.414;2023-04-24T09:37:45;13.18;66.42
77100;SHT31;66602;48.922;2.414;2023-04-24T09:40:18;13.29;66.23
77100;SHT31;66602;48.922;2.414;2023-04-24T09:42:46;13.05;65.99
77100;SHT31;66602;48.922;2.414;2023-04-24T09:45:17;12.90;66.34
77100;SHT31;66602;48.922;2.414;2023-04-24T09:47:42;13.02;66.03
77100;SHT31;66602;48.922;2.414;2023-04-24T09:50:16;13.05;66.11
77100;SHT31;66602;48.922;2.414;2023-04-24T09:52:46;12.71;66.97
77100;SHT31;66602;48.922;2.414;2023-04-24T09:55:20;12.74;67.37
77100;SHT31;66602;48.922;2.414;2023-04-24T09:57:50;12.88;66.52
77100;SHT31;66602;48.922;2.414;2023-04-24T10:00:30;13.22;64.04
77100;SHT31;66602;48.922;2.414;2023-04-24T10:03:01;13.84;63.38
77100;SHT31;66602;48.922;2.414;2023-04-24T10:05:32;13.87;63.75
77100;SHT31;66602;48.922;2.414;2023-04-24T10:08:08;13.45;63.22
77100;SHT31;66602;48.922;2.414;2023-04-24T10:10:38;13.67;62.44
77100;SHT31;66602;48.922;2.414;2023-04-24T10:13:04;14.75;59.38
77100;SHT31;66602;48.922;2.414;2023-04-24T10:15:30;14.35;59.24
77100;SHT31;66602;48.922;2.414;2023-04-24T10:17:58;14.30;60.47
77100;SHT31;66602;48.922;2.414;2023-04-24T10:20:29;14.64;58.16
77100;SHT31;66602;48.922;2.414;2023-04-24T10:22:57;15.22;58.16
77100;SHT31;66602;48.922;2.414;2023-04-24T10:25:25;15.89;56.21
77100;SHT31;66602;48.922;2.414;2023-04-24T10:27:52;16.13;56.20
77100;SHT31;66602;48.922;2.414;2023-04-24T10:30:19;15.62;56.83
77100;SHT31;66602;48.922;2.414;2023-04-24T10:32:45;14.64;60.72
77100;SHT31;66602;48.922;2.414;2023-04-24T10:35:13;15.27;57.43
77100;SHT31;66602;48.922;2.414;2023-04-24T10:38:26;15.09;56.79
77100;SHT31;66602;48.922;2.414;2023-04-24T10:40:32;15.68;56.31
77100;SHT31;66602;48.922;2.414;2023-04-24T10:42:59;15.07;56.63
77100;SHT31;66602;48.922;2.414;2023-04-24T10:45:25;15.04;57.03
77100;SHT31;66602;48.922;2.414;2023-04-24T10:50:27;15.33;57.21
77100;SHT31;66602;48.922;2.414;2023-04-24T10:52:53;16.47;54.95
77100;SHT31;66602;48.922;2.414;2023-04-24T10:58:09;15.85;55.25
77100;SHT31;66602;48.922;2.414;2023-04-24T11:00:40;16.94;52.51
77100;SHT31;66602;48.922;2.414;2023-04-24T11:03:12;17.72;49.92
77100;SHT31;66602;48.922;2.414;2023-04-24T11:05:51;19.99;43.21
77100;SHT31;66602;48.922;2.414;2023-04-24T11:11:15;17.90;48.33
77100;SHT31;66602;48.922;2.414;2023-04-24T11:19:06;20.01;45.42
77100;SHT31;66602;48.922;2.414;2023-04-24T11:26:48;16.97;48.45
77100;SHT31;66602;48.922;2.414;2023-04-24T11:29:13;17.19;48.74
77100;SHT31;66602;48.922;2.414;2023-04-24T11:31:40;16.26;51.31
77100;SHT31;66602;48.922;2.414;2023-04-24T11:34:14;16.39;50.15
77100;SHT31;66602;48.922;2.414;2023-04-24T11:36:43;17.52;48.38
77100;SHT31;66602;48.922;2.414;2023-04-24T11:39:09;20.33;41.32
77100;SHT31;66602;48.922;2.414;2023-04-24T11:41:36;21.07;38.75
77100;SHT31;66602;48.922;2.414;2023-04-24T11:44:03;21.61;37.23
77100;SHT31;66602;48.922;2.414;2023-04-24T11:46:30;20.95;38.96
77100;SHT31;66602;48.922;2.414;2023-04-24T11:48:57;20.88;38.60
77100;SHT31;66602;48.922;2.414;2023-04-24T11:51:23;22.12;37.14
77100;SHT31;66602;48.922;2.414;2023-04-24T11:53:51;22.55;37.89
77100;SHT31;66602;48.922;2.414;2023-04-24T11:56:24;19.89;41.15
77100;SHT31;66602;48.922;2.414;2023-04-24T11:58:52;18.13;46.35
77100;SHT31;66602;48.922;2.414;2023-04-24T12:01:18;16.49;49.27
77100;SHT31;66602;48.922;2.414;2023-04-24T12:03:59;16.45;50.93
77100;SHT31;66602;48.922;2.414;2023-04-24T12:06:25;15.34;52.51
77100;SHT31;66602;48.922;2.414;2023-04-24T12:08:52;15.92;50.76
77100;SHT31;66602;48.922;2.414;2023-04-24T12:11:17;16.98;48.45
77100;SHT31;66602;48.922;2.414;2023-04-24T12:13:44;17.14;47.15
77100;SHT31;66602;48.922;2.414;2023-04-24T12:16:10;17.21;46.06
77100;SHT31;66602;48.922;2.414;2023-04-24T12:18:44;16.67;47.49
77100;SHT31;66602;48.922;2.414;2023-04-24T12:21:21;16.30;49.28
77100;SHT31;66602;48.922;2.414;2023-04-24T12:23:47;16.33;49.75
77100;SHT31;66602;48.922;2.414;2023-04-24T12:26:19;15.60;49.91
77100;SHT31;66602;48.922;2.414;2023-04-24T12:28:49;15.30;51.13
77100;SHT31;66602;48.922;2.414;2023-04-24T12:31:16;15.06;50.88
77100;SHT31;66602;48.922;2.414;2023-04-24T12:33:41;14.65;50.40
77100;SHT31;66602;48.922;2.414;2023-04-24T12:36:10;14.37;51.86
77100;SHT31;66602;48.922;2.414;2023-04-24T12:38:43;14.27;52.68
77100;SHT31;66602;48.922;2.414;2023-04-24T12:41:12;14.01;53.65
77100;SHT31;66602;48.922;2.414;2023-04-24T12:43:50;14.13;53.66
77100;SHT31;66602;48.922;2.414;2023-04-24T12:46:17;14.37;52.52
77100;SHT31;66602;48.922;2.414;2023-04-24T12:48:43;14.61;51.60
77100;SHT31;66602;48.922;2.414;2023-04-24T12:51:09;14.95;50.66
77100;SHT31;66602;48.922;2.414;2023-04-24T12:53:36;15.39;49.29
77100;SHT31;66602;48.922;2.414;2023-04-24T12:56:02;15.10;48.32
77100;SHT31;66602;48.922;2.414;2023-04-24T12:58:28;15.41;48.72
77100;SHT31;66602;48.922;2.414;2023-04-24T13:00:54;15.53;48.41
77100;SHT31;66602;48.922;2.414;2023-04-24T13:03:20;15.24;49.31
77100;SHT31;66602;48.922;2.414;2023-04-24T13:05:48;15.31;49.79
77100;SHT31;66602;48.922;2.414;2023-04-24T13:08:14;15.10;49.67
77100;SHT31;66602;48.922;2.414;2023-04-24T13:10:40;15.39;49.94
77100;SHT31;66602;48.922;2.414;2023-04-24T13:13:06;15.82;49.06
77100;SHT31;66602;48.922;2.414;2023-04-24T13:15:34;15.77;46.76
77100;SHT31;66602;48.922;2.414;2023-04-24T13:18:01;15.91;46.00
77100;SHT31;66602;48.922;2.414;2023-04-24T13:20:27;15.19;47.45
77100;SHT31;66602;48.922;2.414;2023-04-24T13:22:53;15.14;48.10
77100;SHT31;66602;48.922;2.414;2023-04-24T13:25:19;15.14;48.96
77100;SHT31;66602;48.922;2.414;2023-04-24T13:27:45;15.13;48.93
77100;SHT31;66602;48.922;2.414;2023-04-24T13:30:13;15.03;52.13
77100;SHT31;66602;48.922;2.414;2023-04-24T13:32:39;15.02;49.69
77100;SHT31;66602;48.922;2.414;2023-04-24T13:35:05;14.85;51.01
77100;SHT31;66602;48.922;2.414;2023-04-24T13:37:31;14.65;51.43
77100;SHT31;66602;48.922;2.414;2023-04-24T13:39:57;14.46;52.53
77100;SHT31;66602;48.922;2.414;2023-04-24T13:42:23;14.34;53.25
77100;SHT31;66602;48.922;2.414;2023-04-24T13:44:49;14.27;53.38
77100;SHT31;66602;48.922;2.414;2023-04-24T13:47:16;14.13;53.50
77100;SHT31;66602;48.922;2.414;2023-04-24T13:49:42;13.99;53.93
77100;SHT31;66602;48.922;2.414;2023-04-24T13:52:08;14.10;53.82
77100;SHT31;66602;48.922;2.414;2023-04-24T13:54:37;14.37;53.02
77100;SHT31;66602;48.922;2.414;2023-04-24T13:57:03;14.86;51.08
77100;SHT31;66602;48.922;2.414;2023-04-24T13:59:29;15.61;49.38
77100;SHT31;66602;48.922;2.414;2023-04-24T14:01:55;16.19;46.56
77100;SHT31;66602;48.922;2.414;2023-04-24T14:04:22;16.70;45.30
77100;SHT31;66602;48.922;2.414;2023-04-24T14:06:47;17.66;43.20
77100;SHT31;66602;48.922;2.414;2023-04-24T14:09:13;17.04;44.20
77100;SHT31;66602;48.922;2.414;2023-04-24T14:11:41;18.72;40.77
77100;SHT31;66602;48.922;2.414;2023-04-24T14:14:09;18.65;38.87
77100;SHT31;66602;48.922;2.414;2023-04-24T14:16:35;19.27;37.24
77100;SHT31;66602;48.922;2.414;2023-04-24T14:19:01;18.07;39.63
77100;SHT31;66602;48.922;2.414;2023-04-24T14:21:26;16.56;43.11
77100;SHT31;66602;48.922;2.414;2023-04-24T14:23:52;16.10;43.30
77100;SHT31;66602;48.922;2.414;2023-04-24T14:26:19;16.42;44.32
77100;SHT31;66602;48.922;2.414;2023-04-24T14:28:45;16.66;42.89
77100;SHT31;66602;48.922;2.414;2023-04-24T14:31:11;16.77;41.56
77100;SHT31;66602;48.922;2.414;2023-04-24T14:33:36;17.17;42.43
77100;SHT31;66602;48.922;2.414;2023-04-24T14:36:02;17.38;40.58
77100;SHT31;66602;48.922;2.414;2023-04-24T14:38:29;17.91;40.67
77100;SHT31;66602;48.922;2.414;2023-04-24T14:40:56;18.75;38.05
77100;SHT31;66602;48.922;2.414;2023-04-24T14:43:22;18.73;38.66
77100;SHT31;66602;48.922;2.414;2023-04-24T14:45:48;16.97;41.69
77100;SHT31;66602;48.922;2.414;2023-04-24T14:48:13;17.90;40.82
77100;SHT31;66602;48.922;2.414;2023-04-24T14:50:39;16.91;42.17
77100;SHT31;66602;48.922;2.414;2023-04-24T14:53:05;16.92;42.60
77100;SHT31;66602;48.922;2.414;2023-04-24T14:55:30;17.45;43.20
77100;SHT31;66602;48.922;2.414;2023-04-24T14:57:56;18.65;39.79
77100;SHT31;66602;48.922;2.414;2023-04-24T15:00:22;17.48;40.64
77100;SHT31;66602;48.922;2.414;2023-04-24T15:02:51;16.49;42.56
77100;SHT31;66602;48.922;2.414;2023-04-24T15:05:16;15.94;45.08
77100;SHT31;66602;48.922;2.414;2023-04-24T15:07:42;15.48;44.37
77100;SHT31;66602;48.922;2.414;2023-04-24T15:10:10;15.33;45.51
77100;SHT31;66602;48.922;2.414;2023-04-24T15:12:35;15.30;46.46
77100;SHT31;66602;48.922;2.414;2023-04-24T15:15:01;15.20;46.42
77100;SHT31;66602;48.922;2.414;2023-04-24T15:17:27;15.07;47.17
77100;SHT31;66602;48.922;2.414;2023-04-24T15:19:52;14.83;48.84
77100;SHT31;66602;48.922;2.414;2023-04-24T15:22:18;14.72;50.10
77100;SHT31;66602;48.922;2.414;2023-04-24T15:24:43;14.59;50.96
77100;SHT31;66602;48.922;2.414;2023-04-24T15:27:09;14.52;51.98
77100;SHT31;66602;48.922;2.414;2023-04-24T15:29:35;14.58;50.21
77100;SHT31;66602;48.922;2.414;2023-04-24T15:32:01;14.30;48.48
77100;SHT31;66602;48.922;2.414;2023-04-24T15:34:26;14.28;49.02
77100;SHT31;66602;48.922;2.414;2023-04-24T15:36:52;14.24;48.89
77100;SHT31;66602;48.922;2.414;2023-04-24T15:39:22;14.31;47.41
77100;SHT31;66602;48.922;2.414;2023-04-24T15:41:48;14.22;47.27
77100;SHT31;66602;48.922;2.414;2023-04-24T15:44:15;14.40;47.10
77100;SHT31;66602;48.922;2.414;2023-04-24T15:46:40;14.73;46.12
77100;SHT31;66602;48.922;2.414;2023-04-24T15:49:06;14.88;46.59
77100;SHT31;66602;48.922;2.414;2023-04-24T15:51:32;15.02;46.91
77100;SHT31;66602;48.922;2.414;2023-04-24T15:53:57;15.67;48.43
77100;SHT31;66602;48.922;2.414;2023-04-24T15:56:23;16.40;43.94